createdAt,value
2022-12-15T00:00:34.498Z,4.2
2022-12-15T00:01:34.247Z,3.4
2022-12-15T00:02:34.092Z,4.1
2022-12-15T00:03:35.477Z,4.3
2022-12-15T00:04:34.589Z,4.0
2022-12-15T00:05:34.444Z,3.5
2022-12-15T00:06:34.303Z,5.2
2022-12-15T00:07:34.063Z,3.7
2022-12-15T00:08:33.913Z,3.8
2022-12-15T00:09:34.541Z,3.3
2022-12-15T00:10:34.343Z,2.9
2022-12-15T00:11:34.236Z,3.9
2022-12-15T00:12:34.043Z,2.9
2022-12-15T00:13:34.956Z,3.4
2022-12-15T00:14:34.738Z,2.5
2022-12-15T00:15:34.567Z,2.8
2022-12-15T00:16:34.347Z,4.5
2022-12-15T00:17:34.027Z,3.4
2022-12-15T00:18:34.693Z,3.6
2022-12-15T00:19:34.573Z,3.2
2022-12-15T00:20:34.344Z,3.0
2022-12-15T00:21:34.214Z,4.0
2022-12-15T00:22:34.021Z,3.9
2022-12-15T00:23:34.704Z,3.2
2022-12-15T00:24:34.545Z,2.6
2022-12-15T00:25:34.391Z,3.2
2022-12-15T00:26:34.284Z,3.4
2022-12-15T00:27:34.023Z,3.6
2022-12-15T00:28:34.675Z,2.4
2022-12-15T00:29:34.469Z,3.5
2022-12-15T00:30:34.324Z,4.4
2022-12-15T00:31:34.205Z,3.8
2022-12-15T00:32:34.036Z,4.2
2022-12-15T00:33:34.895Z,4.1
2022-12-15T00:34:34.545Z,3.9
2022-12-15T00:35:34.440Z,4.2
2022-12-15T00:36:34.288Z,3.9
2022-12-15T00:37:33.988Z,2.9
2022-12-15T00:38:34.648Z,3.9
2022-12-15T00:39:34.460Z,3.3
2022-12-15T00:40:34.323Z,2.1
2022-12-15T00:41:34.158Z,4.3
2022-12-15T00:42:33.984Z,3.4
2022-12-15T00:43:35.749Z,2.6
2022-12-15T00:44:34.519Z,3.2
2022-12-15T00:45:34.343Z,2.9
2022-12-15T00:46:34.266Z,3.7
2022-12-15T00:47:34.004Z,3.4
2022-12-15T00:48:34.657Z,3.2
2022-12-15T00:49:34.441Z,3.9
2022-12-15T00:50:34.277Z,3.1
2022-12-15T00:51:34.189Z,2.5
2022-12-15T00:52:33.928Z,1.9
2022-12-15T00:53:34.659Z,3.2
2022-12-15T00:54:34.515Z,3.8
2022-12-15T00:55:34.328Z,2.5
2022-12-15T00:56:34.139Z,3.4
2022-12-15T00:57:34.055Z,3.2
2022-12-15T00:58:34.620Z,3.9
2022-12-15T00:59:34.455Z,3.4
2022-12-15T01:00:34.258Z,3.3
2022-12-15T01:01:34.252Z,3.4
2022-12-15T01:02:34.105Z,3.8
2022-12-15T01:03:35.218Z,2.5
2022-12-15T01:04:34.480Z,2.1
2022-12-15T01:05:34.282Z,3.2
2022-12-15T01:06:34.121Z,2.9
2022-12-15T01:07:33.950Z,4.1
2022-12-15T01:08:34.674Z,4.5
2022-12-15T01:09:34.411Z,3.5
2022-12-15T01:10:34.274Z,2.9
2022-12-15T01:11:34.092Z,2.5
2022-12-15T01:12:34.782Z,3.3
2022-12-15T01:13:34.671Z,2.8
2022-12-15T01:14:34.434Z,4.0
2022-12-15T01:15:37.481Z,3.2
2022-12-15T01:16:34.134Z,2.8
2022-12-15T01:17:33.898Z,3.1
2022-12-15T01:18:34.547Z,3.1
2022-12-15T01:19:34.620Z,2.9
2022-12-15T01:20:34.187Z,3.1
2022-12-15T01:21:34.029Z,3.5
2022-12-15T01:22:37.344Z,3.4
2022-12-15T01:23:35.261Z,2.6
2022-12-15T01:24:34.548Z,3.0
2022-12-15T01:25:34.446Z,3.2
2022-12-15T01:26:34.051Z,2.7
2022-12-15T01:27:34.878Z,4.0
2022-12-15T01:28:34.548Z,2.9
2022-12-15T01:29:34.366Z,3.5
2022-12-15T01:30:34.255Z,2.3
2022-12-15T01:31:34.052Z,3.3
2022-12-15T01:32:34.723Z,2.4
2022-12-15T01:33:34.607Z,3.0
2022-12-15T01:34:34.368Z,3.3
2022-12-15T01:35:34.244Z,3.2
2022-12-15T01:36:34.063Z,2.5
2022-12-15T01:37:34.699Z,2.6
2022-12-15T01:38:34.488Z,2.8
2022-12-15T01:39:34.364Z,2.7
2022-12-15T01:40:34.201Z,3.7
2022-12-15T01:41:34.023Z,3.2
2022-12-15T01:42:34.715Z,2.5
2022-12-15T01:43:37.553Z,2.4
2022-12-15T01:44:35.766Z,3.5
2022-12-15T01:45:41.765Z,2.9
2022-12-15T01:46:34.151Z,2.8
2022-12-15T01:47:34.704Z,3.2
2022-12-15T01:48:41.835Z,2.7
2022-12-15T01:49:34.297Z,3.3
2022-12-15T01:50:39.006Z,2.4
2022-12-15T01:51:38.738Z,2.3
2022-12-15T01:52:34.848Z,2.5
2022-12-15T01:53:36.815Z,1.8
2022-12-15T01:54:44.687Z,2.5
2022-12-15T01:55:34.316Z,2.4
2022-12-15T01:56:37.949Z,3.1
2022-12-15T01:57:34.804Z,2.7
2022-12-15T01:58:35.225Z,2.6
2022-12-15T01:59:36.535Z,3.0
2022-12-15T02:00:34.290Z,2.3
2022-12-15T02:01:34.244Z,2.4
2022-12-15T02:02:40.168Z,2.8
2022-12-15T02:03:35.401Z,1.7
2022-12-15T02:04:35.112Z,2.2
2022-12-15T02:05:34.337Z,2.1
2022-12-15T02:06:34.125Z,3.2
2022-12-15T02:07:34.683Z,3.6
2022-12-15T02:08:34.677Z,3.3
2022-12-15T02:09:34.234Z,2.8
2022-12-15T02:10:41.693Z,2.8
2022-12-15T02:11:51.201Z,3.0
2022-12-15T02:12:39.565Z,2.9
2022-12-15T02:13:37.192Z,2.7
2022-12-15T02:14:50.705Z,2.3
2022-12-15T02:15:37.957Z,2.0
2022-12-15T02:16:47.766Z,2.6
2022-12-15T02:17:39.462Z,2.9
2022-12-15T02:18:45.194Z,2.6
2022-12-15T02:19:44.701Z,2.8
2022-12-15T02:20:50.172Z,3.1
2022-12-15T02:21:38.841Z,2.7
2022-12-15T02:22:52.626Z,2.7
2022-12-15T02:23:52.624Z,3.4
2022-12-15T02:24:44.719Z,2.1
2022-12-15T02:25:44.707Z,3.4
2022-12-15T02:26:45.191Z,2.2
2022-12-15T02:27:39.480Z,2.2
2022-12-15T02:28:52.644Z,3.3
2022-12-15T02:29:44.697Z,3.6
2022-12-15T02:30:44.704Z,2.6
2022-12-15T02:31:38.239Z,2.3
2022-12-15T02:32:38.521Z,2.2
2022-12-15T02:33:36.234Z,2.6
2022-12-15T02:34:39.079Z,2.7
2022-12-15T02:35:38.918Z,2.6
2022-12-15T02:36:36.039Z,2.8
2022-12-15T02:37:36.375Z,2.5
2022-12-15T02:38:35.972Z,2.2
2022-12-15T02:39:34.123Z,3.1
2022-12-15T02:40:33.931Z,2.8
2022-12-15T02:41:41.414Z,1.9
2022-12-15T02:42:36.042Z,2.6
2022-12-15T02:43:36.106Z,2.1
2022-12-15T02:44:41.710Z,2.1
2022-12-15T02:45:38.889Z,2.2
2022-12-15T02:46:38.269Z,1.8
2022-12-15T02:47:51.193Z,3.3
2022-12-15T02:48:39.201Z,3.1
2022-12-15T02:49:38.960Z,2.8
2022-12-15T02:50:47.700Z,2.1
2022-12-15T02:51:42.241Z,2.6
2022-12-15T02:52:42.228Z,2.8
2022-12-15T02:53:52.193Z,2.8
2022-12-15T02:54:39.017Z,3.1
2022-12-15T02:55:38.808Z,2.6
2022-12-15T02:56:42.188Z,3.1
2022-12-15T02:57:57.200Z,3.0
2022-12-15T02:58:41.701Z,2.9
2022-12-15T02:59:41.177Z,1.8
2022-12-15T03:00:38.022Z,2.6
2022-12-15T03:01:42.387Z,2.7
2022-12-15T03:02:35.929Z,2.2
2022-12-15T03:03:35.369Z,2.2
2022-12-15T03:04:34.205Z,2.9
2022-12-15T03:05:34.037Z,2.9
2022-12-15T03:06:34.707Z,2.3
2022-12-15T03:07:34.400Z,1.1
2022-12-15T03:08:34.229Z,2.7
2022-12-15T03:09:34.098Z,1.9
2022-12-15T03:10:34.760Z,2.3
2022-12-15T03:11:35.394Z,2.6
2022-12-15T03:12:34.462Z,2.0
2022-12-15T03:13:34.553Z,3.3
2022-12-15T03:14:34.157Z,2.3
2022-12-15T03:15:35.759Z,2.0
2022-12-15T03:16:34.635Z,2.3
2022-12-15T03:17:34.348Z,1.7
2022-12-15T03:18:34.144Z,2.8
2022-12-15T03:19:34.051Z,1.7
2022-12-15T03:20:34.967Z,1.5
2022-12-15T03:21:34.543Z,2.6
2022-12-15T03:22:34.812Z,2.2
2022-12-15T03:23:34.420Z,2.1
2022-12-15T03:24:34.007Z,2.2
2022-12-15T03:25:34.680Z,2.5
2022-12-15T03:26:34.504Z,2.6
2022-12-15T03:27:34.626Z,2.1
2022-12-15T03:28:34.138Z,2.5
2022-12-15T03:29:33.969Z,2.5
2022-12-15T03:30:34.713Z,2.9
2022-12-15T03:31:34.618Z,2.0
2022-12-15T03:32:34.304Z,3.3
2022-12-15T03:33:34.487Z,2.3
2022-12-15T03:34:33.932Z,1.9
2022-12-15T03:35:34.835Z,3.0
2022-12-15T03:36:34.397Z,2.5
2022-12-15T03:37:34.226Z,2.5
2022-12-15T03:38:34.074Z,2.0
2022-12-15T03:39:33.937Z,2.9
2022-12-15T03:40:34.697Z,2.2
2022-12-15T03:41:34.437Z,2.7
2022-12-15T03:42:34.237Z,2.1
2022-12-15T03:43:34.328Z,1.6
2022-12-15T03:44:33.886Z,3.0
2022-12-15T03:45:34.655Z,1.9
2022-12-15T03:46:34.416Z,2.3
2022-12-15T03:47:34.223Z,2.1
2022-12-15T03:48:34.018Z,2.7
2022-12-15T03:49:34.801Z,1.6
2022-12-15T03:50:34.604Z,2.1
2022-12-15T03:51:34.447Z,2.2
2022-12-15T03:52:34.266Z,2.3
2022-12-15T03:53:34.428Z,1.5
2022-12-15T03:54:34.802Z,3.2
2022-12-15T03:55:34.594Z,1.8
2022-12-15T03:56:34.368Z,2.1
2022-12-15T03:57:34.246Z,1.5
2022-12-15T03:58:34.044Z,1.7
2022-12-15T03:59:34.763Z,1.9
2022-12-15T04:00:34.553Z,2.3
2022-12-15T04:01:35.167Z,2.5
2022-12-15T04:02:34.409Z,2.0
2022-12-15T04:03:34.514Z,2.7
2022-12-15T04:04:34.637Z,2.4
2022-12-15T04:05:34.480Z,3.2
2022-12-15T04:06:34.389Z,2.4
2022-12-15T04:07:34.125Z,1.6
2022-12-15T04:08:33.934Z,2.1
2022-12-15T04:09:35.073Z,1.9
2022-12-15T04:10:35.197Z,1.9
2022-12-15T04:11:34.310Z,2.7
2022-12-15T04:12:34.248Z,2.0
2022-12-15T04:13:34.438Z,2.1
2022-12-15T04:14:34.591Z,2.0
2022-12-15T04:15:35.056Z,1.8
2022-12-15T04:16:34.290Z,2.7
2022-12-15T04:17:34.261Z,2.6
2022-12-15T04:18:33.912Z,2.4
2022-12-15T04:19:34.709Z,2.0
2022-12-15T04:20:34.559Z,2.4
2022-12-15T04:21:34.289Z,2.2
2022-12-15T04:22:43.645Z,2.1
2022-12-15T04:23:34.213Z,2.7
2022-12-15T04:24:34.561Z,2.2
2022-12-15T04:25:34.788Z,2.0
2022-12-15T04:26:34.187Z,2.0
2022-12-15T04:27:34.048Z,2.0
2022-12-15T04:28:34.813Z,1.0
2022-12-15T04:29:34.652Z,1.5
2022-12-15T04:30:34.712Z,1.8
2022-12-15T04:31:34.612Z,1.7
2022-12-15T04:32:34.105Z,2.1
2022-12-15T04:33:34.864Z,2.4
2022-12-15T04:34:34.587Z,2.1
2022-12-15T04:35:34.478Z,1.8
2022-12-15T04:36:34.893Z,1.9
2022-12-15T04:37:33.994Z,1.2
2022-12-15T04:38:34.838Z,1.6
2022-12-15T04:39:35.211Z,1.5
2022-12-15T04:40:34.461Z,1.8
2022-12-15T04:41:34.369Z,2.2
2022-12-15T04:42:35.077Z,2.1
2022-12-15T04:43:34.793Z,2.2
2022-12-15T04:44:34.842Z,2.5
2022-12-15T04:45:34.380Z,2.4
2022-12-15T04:46:34.215Z,2.9
2022-12-15T04:47:33.992Z,1.6
2022-12-15T04:48:34.745Z,2.1
2022-12-15T04:49:34.576Z,1.9
2022-12-15T04:50:34.368Z,2.5
2022-12-15T04:51:34.200Z,2.0
2022-12-15T04:52:33.973Z,1.8
2022-12-15T04:53:34.960Z,1.6
2022-12-15T04:54:34.509Z,1.6
2022-12-15T04:55:35.183Z,1.4
2022-12-15T04:56:34.112Z,1.8
2022-12-15T04:57:34.266Z,2.1
2022-12-15T04:58:34.695Z,2.2
2022-12-15T04:59:34.515Z,2.4
2022-12-15T05:00:35.085Z,2.4
2022-12-15T05:01:34.235Z,2.3
2022-12-15T05:02:34.115Z,1.9
2022-12-15T05:03:35.030Z,2.3
2022-12-15T05:04:34.496Z,1.8
2022-12-15T05:05:34.308Z,1.5
2022-12-15T05:06:34.119Z,1.5
2022-12-15T05:07:33.948Z,1.4
2022-12-15T05:08:34.782Z,1.7
2022-12-15T05:09:34.492Z,2.0
2022-12-15T05:10:34.311Z,2.1
2022-12-15T05:11:34.165Z,2.8
2022-12-15T05:12:33.941Z,1.5
2022-12-15T05:13:34.906Z,2.2
2022-12-15T05:14:34.450Z,3.0
2022-12-15T05:15:34.414Z,2.2
2022-12-15T05:16:34.473Z,1.8
2022-12-15T05:17:38.291Z,1.4
2022-12-15T05:18:34.593Z,1.0
2022-12-15T05:19:34.465Z,0.7
2022-12-15T05:20:34.271Z,1.4
2022-12-15T05:21:34.091Z,2.1
2022-12-15T05:22:33.954Z,2.8
2022-12-15T05:23:34.640Z,2.2
2022-12-15T05:24:34.381Z,1.6
2022-12-15T05:25:34.184Z,1.8
2022-12-15T05:26:34.016Z,1.4
2022-12-15T05:27:34.788Z,1.8
2022-12-15T05:28:34.551Z,3.1
2022-12-15T05:29:34.371Z,2.0
2022-12-15T05:30:34.225Z,1.7
2022-12-15T05:31:34.209Z,1.3
2022-12-15T05:32:34.715Z,2.2
2022-12-15T05:33:34.768Z,1.9
2022-12-15T05:34:35.166Z,2.4
2022-12-15T05:35:34.135Z,1.9
2022-12-15T05:36:33.975Z,1.5
2022-12-15T05:37:34.707Z,1.8
2022-12-15T05:38:34.599Z,1.3
2022-12-15T05:39:34.392Z,0.8
2022-12-15T05:40:34.160Z,1.1
2022-12-15T05:41:33.989Z,3.1
2022-12-15T05:42:34.688Z,1.9
2022-12-15T05:43:35.099Z,1.1
2022-12-15T05:44:34.357Z,2.3
2022-12-15T05:45:34.159Z,1.7
2022-12-15T05:46:34.050Z,3.2
2022-12-15T05:47:34.696Z,2.6
2022-12-15T05:48:34.557Z,2.4
2022-12-15T05:49:34.388Z,0.9
2022-12-15T05:50:34.166Z,2.3
2022-12-15T05:51:36.398Z,1.9
2022-12-15T05:52:34.642Z,1.6
2022-12-15T05:53:35.377Z,1.6
2022-12-15T05:54:34.364Z,1.7
2022-12-15T05:55:34.162Z,1.6
2022-12-15T05:56:34.407Z,1.3
2022-12-15T05:57:34.647Z,0.4
2022-12-15T05:58:37.448Z,1.3
2022-12-15T05:59:34.324Z,2.4
2022-12-15T06:00:34.299Z,1.9
2022-12-15T06:01:34.548Z,2.1
2022-12-15T06:02:34.712Z,1.5
2022-12-15T06:03:34.874Z,1.3
2022-12-15T06:04:34.992Z,1.7
2022-12-15T06:05:34.180Z,2.5
2022-12-15T06:06:33.908Z,1.4
2022-12-15T06:07:34.682Z,1.4
2022-12-15T06:08:35.358Z,2.1
2022-12-15T06:09:34.296Z,1.7
2022-12-15T06:10:34.141Z,1.8
2022-12-15T06:11:33.978Z,1.8
2022-12-15T06:12:34.620Z,1.2
2022-12-15T06:13:35.016Z,1.6
2022-12-15T06:14:34.209Z,2.2
2022-12-15T06:15:34.096Z,1.4
2022-12-15T06:16:34.005Z,0.8
2022-12-15T06:17:34.114Z,1.5
2022-12-15T06:18:35.176Z,1.2
2022-12-15T06:19:34.702Z,2.7
2022-12-15T06:20:34.506Z,1.5
2022-12-15T06:21:34.970Z,1.9
2022-12-15T06:22:34.162Z,2.1
2022-12-15T06:23:34.468Z,1.9
2022-12-15T06:24:34.656Z,2.2
2022-12-15T06:25:34.466Z,1.6
2022-12-15T06:26:37.702Z,2.6
2022-12-15T06:27:34.676Z,1.1
2022-12-15T06:28:33.958Z,1.7
2022-12-15T06:29:34.649Z,1.7
2022-12-15T06:30:34.484Z,1.9
2022-12-15T06:31:35.103Z,1.5
2022-12-15T06:32:34.239Z,1.4
2022-12-15T06:33:34.625Z,1.3
2022-12-15T06:34:34.666Z,2.0
2022-12-15T06:35:37.324Z,0.7
2022-12-15T06:36:34.340Z,1.6
2022-12-15T06:37:34.115Z,1.4
2022-12-15T06:38:34.539Z,0.8
2022-12-15T06:39:34.638Z,1.7
2022-12-15T06:40:38.024Z,1.6
2022-12-15T06:41:34.542Z,1.5
2022-12-15T06:42:34.184Z,1.7
2022-12-15T06:43:34.407Z,1.3
2022-12-15T06:44:34.605Z,2.2
2022-12-15T06:45:34.749Z,1.3
2022-12-15T06:46:34.256Z,1.1
2022-12-15T06:47:34.095Z,1.2
2022-12-15T06:48:34.169Z,1.2
2022-12-15T06:49:34.605Z,1.2
2022-12-15T06:50:34.434Z,1.7
2022-12-15T06:51:34.289Z,0.9
2022-12-15T06:52:34.142Z,2.0
2022-12-15T06:53:37.686Z,2.3
2022-12-15T06:54:34.664Z,1.1
2022-12-15T06:55:34.459Z,1.5
2022-12-15T06:56:34.963Z,2.0
2022-12-15T06:57:34.095Z,1.6
2022-12-15T06:58:33.935Z,1.3
2022-12-15T06:59:34.649Z,1.9
2022-12-15T07:00:34.951Z,1.5
2022-12-15T07:01:34.509Z,1.4
2022-12-15T07:02:34.326Z,1.4
2022-12-15T07:03:35.216Z,1.3
2022-12-15T07:04:34.572Z,1.7
2022-12-15T07:05:34.427Z,1.1
2022-12-15T07:06:34.810Z,1.8
2022-12-15T07:07:34.084Z,1.5
2022-12-15T07:08:40.941Z,1.8
2022-12-15T07:09:34.652Z,1.4
2022-12-15T07:10:36.580Z,1.2
2022-12-15T07:11:34.348Z,2.0
2022-12-15T07:12:34.084Z,1.9
2022-12-15T07:13:34.452Z,2.4
2022-12-15T07:14:34.658Z,1.8
2022-12-15T07:15:34.397Z,1.7
2022-12-15T07:16:34.353Z,1.3
2022-12-15T07:17:34.663Z,1.8
2022-12-15T07:18:34.761Z,1.2
2022-12-15T07:19:34.577Z,1.1
2022-12-15T07:20:34.433Z,1.1
2022-12-15T07:21:34.220Z,1.6
2022-12-15T07:22:34.188Z,1.6
2022-12-15T07:23:53.377Z,1.3
2022-12-15T07:24:34.528Z,1.0
2022-12-15T07:25:38.060Z,1.1
2022-12-15T07:26:34.154Z,2.0
2022-12-15T07:27:33.969Z,2.5
2022-12-15T07:28:35.336Z,1.4
2022-12-15T07:29:34.522Z,3.0
2022-12-15T07:30:38.717Z,2.3
2022-12-15T07:31:34.250Z,1.8
2022-12-15T07:32:34.009Z,1.6
2022-12-15T07:33:36.888Z,2.2
2022-12-15T07:34:34.496Z,1.5
2022-12-15T07:35:34.287Z,2.4
2022-12-15T07:36:34.258Z,3.2
2022-12-15T07:37:33.966Z,4.5
2022-12-15T07:38:34.719Z,3.9
2022-12-15T07:39:34.525Z,4.6
2022-12-15T07:40:34.309Z,3.6
2022-12-15T07:41:34.230Z,4.5
2022-12-15T07:42:34.039Z,3.9
2022-12-15T07:43:35.600Z,3.5
2022-12-15T07:44:41.201Z,4.7
2022-12-15T07:45:34.557Z,3.6
2022-12-15T07:46:34.237Z,3.7
2022-12-15T07:47:34.141Z,3.5
2022-12-15T07:48:34.871Z,5.2
2022-12-15T07:49:34.470Z,4.4
2022-12-15T07:50:36.529Z,5.1
2022-12-15T07:51:34.543Z,5.5
2022-12-15T07:52:34.476Z,6.1
2022-12-15T07:53:35.085Z,6.0
2022-12-15T07:54:34.453Z,5.2
2022-12-15T07:56:04.884Z,7.6
2022-12-15T07:56:39.065Z,7.0
2022-12-15T07:57:34.817Z,6.6
2022-12-15T07:58:34.649Z,6.3
2022-12-15T07:59:34.466Z,5.1
2022-12-15T08:00:34.277Z,5.2
2022-12-15T08:01:34.199Z,8.6
2022-12-15T08:02:35.125Z,7.6
2022-12-15T08:03:35.811Z,6.8
2022-12-15T08:04:34.634Z,7.1
2022-12-15T08:05:34.273Z,8.4
2022-12-15T08:06:34.142Z,7.6
2022-12-15T08:07:33.947Z,7.9
2022-12-15T08:08:35.342Z,8.4
2022-12-15T08:09:34.179Z,6.6
2022-12-15T08:10:37.265Z,7.5
2022-12-15T08:11:34.538Z,5.9
2022-12-15T08:12:34.757Z,8.7
2022-12-15T08:14:00.822Z,7.3
2022-12-15T08:14:34.417Z,5.7
2022-12-15T08:15:34.949Z,6.4
2022-12-15T08:16:34.361Z,7.8
2022-12-15T08:17:34.812Z,5.8
2022-12-15T08:18:34.677Z,6.2
2022-12-15T08:19:34.434Z,4.6
2022-12-15T08:20:34.531Z,6.2
2022-12-15T08:21:34.108Z,6.4
2022-12-15T08:22:34.789Z,6.6
2022-12-15T08:23:35.323Z,7.1
2022-12-15T08:24:34.431Z,6.8
2022-12-15T08:25:34.277Z,6.3
2022-12-15T08:26:34.396Z,5.5
2022-12-15T08:27:34.831Z,6.2
2022-12-15T08:28:35.111Z,4.6
2022-12-15T08:29:51.045Z,5.4
2022-12-15T08:30:34.322Z,5.1
2022-12-15T08:31:34.200Z,5.5
2022-12-15T08:32:33.986Z,5.3
2022-12-15T08:33:35.196Z,6.3
2022-12-15T08:34:34.753Z,5.6
2022-12-15T08:35:55.808Z,6.2
2022-12-15T08:36:34.187Z,4.6
2022-12-15T08:37:34.031Z,7.4
2022-12-15T08:38:35.773Z,4.8
2022-12-15T08:39:34.567Z,4.7
2022-12-15T08:40:34.383Z,5.1
2022-12-15T08:41:34.587Z,5.3
2022-12-15T08:42:34.899Z,5.8
2022-12-15T08:43:34.825Z,5.5
2022-12-15T08:44:34.170Z,5.9
2022-12-15T08:45:34.912Z,5.2
2022-12-15T08:46:34.727Z,5.0
2022-12-15T08:47:34.386Z,6.2
2022-12-15T08:48:34.412Z,4.4
2022-12-15T08:49:34.503Z,5.0
2022-12-15T08:50:34.354Z,5.4
2022-12-15T08:51:34.232Z,6.2
2022-12-15T08:52:34.279Z,4.8
2022-12-15T08:53:34.934Z,6.4
2022-12-15T08:54:34.542Z,4.6
2022-12-15T08:55:34.469Z,4.5
2022-12-15T08:56:34.840Z,5.7
2022-12-15T08:57:34.116Z,3.9
2022-12-15T08:58:34.320Z,4.9
2022-12-15T08:59:34.107Z,6.4
2022-12-15T09:00:33.973Z,6.1
2022-12-15T09:01:34.767Z,4.1
2022-12-15T09:02:34.941Z,3.5
2022-12-15T09:03:35.184Z,3.8
2022-12-15T09:04:34.629Z,3.6
2022-12-15T09:05:34.950Z,4.1
2022-12-15T09:06:34.975Z,5.0
2022-12-15T09:07:34.447Z,7.0
2022-12-15T09:08:34.593Z,5.2
2022-12-15T09:09:34.100Z,5.5
2022-12-15T09:10:33.943Z,4.8
2022-12-15T09:11:34.733Z,5.4
2022-12-15T09:12:34.485Z,4.5
2022-12-15T09:13:35.236Z,5.6
2022-12-15T09:14:34.147Z,4.0
2022-12-15T09:16:07.146Z,4.3
2022-12-15T09:16:38.593Z,4.3
2022-12-15T09:17:34.550Z,3.9
2022-12-15T09:18:34.326Z,4.2
2022-12-15T09:19:34.135Z,4.0
2022-12-15T09:20:33.959Z,4.9
2022-12-15T09:21:34.889Z,4.7
2022-12-15T09:22:34.655Z,4.3
2022-12-15T09:23:35.680Z,4.7
2022-12-15T09:24:35.112Z,4.7
2022-12-15T09:25:33.978Z,4.6
2022-12-15T09:26:34.670Z,5.4
2022-12-15T09:27:34.570Z,6.2
2022-12-15T09:28:34.748Z,5.4
2022-12-15T09:29:34.177Z,6.2
2022-12-15T09:30:34.034Z,5.2
2022-12-15T09:31:36.073Z,3.2
2022-12-15T09:32:34.698Z,3.8
2022-12-15T09:33:35.353Z,5.0
2022-12-15T09:34:34.754Z,4.6
2022-12-15T09:35:34.473Z,4.6
2022-12-15T09:36:35.024Z,6.0
2022-12-15T09:37:34.172Z,4.1
2022-12-15T09:38:34.234Z,4.6
2022-12-15T09:39:34.593Z,3.9
2022-12-15T09:40:34.412Z,4.1
2022-12-15T09:41:34.827Z,4.9
2022-12-15T09:42:34.162Z,4.1
2022-12-15T09:43:35.884Z,4.4
2022-12-15T09:44:34.647Z,4.4
2022-12-15T09:45:38.834Z,4.4
2022-12-15T09:46:44.708Z,5.2
2022-12-15T09:47:39.074Z,4.5
2022-12-15T09:48:37.750Z,4.6
2022-12-15T09:49:42.207Z,3.2
2022-12-15T09:50:36.233Z,5.1
2022-12-15T09:51:39.139Z,3.5
2022-12-15T09:52:39.036Z,4.5
2022-12-15T09:53:54.653Z,4.6
2022-12-15T09:54:34.736Z,4.1
2022-12-15T09:55:35.128Z,4.9
2022-12-15T09:56:39.788Z,4.6
2022-12-15T09:57:41.824Z,3.7
2022-12-15T09:58:47.722Z,4.6
2022-12-15T09:59:42.218Z,4.4
2022-12-15T10:00:45.782Z,4.1
2022-12-15T10:01:39.210Z,4.1
2022-12-15T10:02:39.051Z,3.9
2022-12-15T10:03:41.867Z,4.1
2022-12-15T10:04:39.533Z,5.3
2022-12-15T10:06:06.092Z,5.8
2022-12-15T10:06:39.190Z,4.6
2022-12-15T10:07:39.650Z,4.4
2022-12-15T10:08:36.137Z,3.5
2022-12-15T10:09:35.976Z,4.9
2022-12-15T10:10:48.265Z,3.4
2022-12-15T10:11:39.120Z,5.3
2022-12-15T10:12:36.266Z,5.6
2022-12-15T10:13:39.757Z,5.4
2022-12-15T10:14:39.137Z,4.4
2022-12-15T10:15:42.288Z,4.0
2022-12-15T10:16:39.343Z,4.2
2022-12-15T10:17:52.654Z,4.9
2022-12-15T10:18:37.236Z,4.1
2022-12-15T10:19:52.194Z,5.0
2022-12-15T10:20:34.053Z,2.7
2022-12-15T10:21:34.912Z,3.9
2022-12-15T10:22:35.735Z,4.0
2022-12-15T10:23:35.639Z,3.9
2022-12-15T10:25:08.716Z,4.7
2022-12-15T10:25:33.995Z,5.6
2022-12-15T10:26:34.738Z,4.3
2022-12-15T10:27:45.227Z,3.4
2022-12-15T10:28:42.269Z,5.1
2022-12-15T10:29:44.313Z,3.8
2022-12-15T10:30:35.937Z,4.9
2022-12-15T10:31:39.163Z,3.8
2022-12-15T10:32:53.722Z,4.4
2022-12-15T10:33:35.547Z,3.4
2022-12-15T10:34:35.700Z,4.7
2022-12-15T10:35:35.058Z,3.7
2022-12-15T10:36:34.762Z,3.9
2022-12-15T10:37:34.502Z,2.7
2022-12-15T10:38:36.027Z,4.0
2022-12-15T10:39:38.314Z,2.7
2022-12-15T10:40:51.080Z,4.2
2022-12-15T10:41:34.719Z,4.4
2022-12-15T10:42:39.433Z,4.4
2022-12-15T10:43:38.544Z,3.9
2022-12-15T10:44:37.472Z,5.1
2022-12-15T10:45:38.250Z,4.1
2022-12-15T10:46:34.712Z,4.0
2022-12-15T10:47:34.522Z,4.2
2022-12-15T10:48:34.850Z,3.4
2022-12-15T10:49:34.199Z,3.5
2022-12-15T10:50:34.012Z,3.4
2022-12-15T10:51:36.461Z,4.4
2022-12-15T10:52:35.668Z,3.6
2022-12-15T10:53:44.554Z,5.9
2022-12-15T10:54:38.146Z,4.1
2022-12-15T10:55:40.801Z,4.5
2022-12-15T10:56:39.602Z,4.4
2022-12-15T10:57:34.732Z,4.5
2022-12-15T10:58:50.411Z,4.2
2022-12-15T10:59:36.072Z,3.6
2022-12-15T11:00:34.287Z,4.0
2022-12-15T11:01:35.008Z,3.6
2022-12-15T11:02:34.799Z,3.1
2022-12-15T11:03:38.308Z,3.2
2022-12-15T11:04:34.397Z,2.9
2022-12-15T11:05:34.194Z,2.5
2022-12-15T11:06:39.675Z,4.7
2022-12-15T11:07:38.883Z,4.2
2022-12-15T11:08:34.384Z,4.4
2022-12-15T11:09:37.697Z,3.5
2022-12-15T11:10:34.043Z,3.7
2022-12-15T11:11:35.582Z,4.8
2022-12-15T11:12:35.881Z,3.6
2022-12-15T11:13:35.243Z,4.0
2022-12-15T11:14:44.984Z,3.3
2022-12-15T11:15:37.582Z,3.3
2022-12-15T11:16:39.620Z,3.7
2022-12-15T11:17:39.798Z,4.2
2022-12-15T11:18:43.534Z,4.3
2022-12-15T11:19:37.195Z,3.1
2022-12-15T11:20:36.453Z,4.0
2022-12-15T11:21:38.468Z,4.0
2022-12-15T11:22:39.073Z,4.4
2022-12-15T11:23:46.763Z,3.6
2022-12-15T11:24:39.139Z,3.5
2022-12-15T11:25:45.283Z,4.0
2022-12-15T11:26:52.764Z,7.4
2022-12-15T11:27:36.492Z,5.0
2022-12-15T11:28:42.235Z,4.7
2022-12-15T11:29:41.748Z,3.7
2022-12-15T11:30:37.535Z,4.4
2022-12-15T11:31:36.704Z,4.3
2022-12-15T11:32:36.375Z,4.4
2022-12-15T11:33:34.590Z,4.0
2022-12-15T11:34:36.500Z,6.3
2022-12-15T11:35:42.230Z,5.8
2022-12-15T11:36:52.222Z,4.7
2022-12-15T11:37:40.947Z,4.5
2022-12-15T11:38:47.764Z,4.8
2022-12-15T11:39:48.673Z,5.0
2022-12-15T11:40:40.948Z,4.8
2022-12-15T11:41:39.203Z,5.3
2022-12-15T11:42:44.601Z,5.1
2022-12-15T11:43:44.749Z,5.1
2022-12-15T11:44:39.556Z,3.8
2022-12-15T11:45:39.408Z,3.9
2022-12-15T11:46:39.294Z,3.3
2022-12-15T11:47:39.126Z,4.4
2022-12-15T11:48:56.753Z,4.7
2022-12-15T11:49:48.262Z,3.5
2022-12-15T11:50:42.260Z,4.5
2022-12-15T11:51:39.238Z,3.8
2022-12-15T11:52:39.088Z,3.6
2022-12-15T11:53:50.739Z,4.2
2022-12-15T11:54:39.787Z,4.2
2022-12-15T11:55:45.247Z,4.4
2022-12-15T11:56:45.419Z,4.3
2022-12-15T11:57:39.111Z,5.1
2022-12-15T11:58:38.894Z,4.7
2022-12-15T11:59:39.749Z,3.8
2022-12-15T12:00:39.047Z,5.0
2022-12-15T12:01:47.344Z,3.5
2022-12-15T12:02:44.886Z,3.5
2022-12-15T12:03:41.770Z,4.2
2022-12-15T12:04:45.255Z,4.1
2022-12-15T12:05:48.251Z,4.1
2022-12-15T12:06:39.239Z,4.1
2022-12-15T12:07:49.036Z,4.3
2022-12-15T12:08:41.747Z,4.6
2022-12-15T12:09:39.628Z,2.9
2022-12-15T12:10:39.252Z,3.6
2022-12-15T12:11:39.261Z,3.2
2022-12-15T12:12:41.304Z,3.0
2022-12-15T12:13:38.979Z,4.0
2022-12-15T12:14:42.254Z,3.1
2022-12-15T12:15:36.938Z,5.8
2022-12-15T12:16:39.249Z,3.2
2022-12-15T12:17:41.900Z,3.2
2022-12-15T12:18:36.986Z,3.6
2022-12-15T12:19:41.377Z,4.3
2022-12-15T12:20:47.717Z,4.2
2022-12-15T12:21:37.635Z,5.7
2022-12-15T12:22:39.141Z,3.8
2022-12-15T12:23:36.963Z,3.2
2022-12-15T12:24:51.569Z,4.4
2022-12-15T12:25:39.022Z,5.0
2022-12-15T12:26:37.493Z,5.2
2022-12-15T12:27:45.265Z,2.7
2022-12-15T12:28:50.407Z,3.3
2022-12-15T12:29:39.772Z,3.8
2022-12-15T12:30:41.721Z,4.2
2022-12-15T12:31:57.627Z,4.6
2022-12-15T12:32:48.247Z,3.1
2022-12-15T12:33:37.770Z,4.4
2022-12-15T12:34:39.275Z,3.6
2022-12-15T12:35:40.040Z,3.0
2022-12-15T12:36:34.112Z,5.1
2022-12-15T12:37:53.149Z,4.8
2022-12-15T12:38:37.326Z,4.4
2022-12-15T12:39:34.469Z,3.8
2022-12-15T12:40:44.753Z,4.0
2022-12-15T12:41:50.624Z,3.3
2022-12-15T12:42:40.288Z,4.1
2022-12-15T12:43:42.290Z,3.9
2022-12-15T12:44:37.560Z,2.9
2022-12-15T12:45:38.976Z,4.0
2022-12-15T12:46:38.797Z,3.3
2022-12-15T12:47:36.585Z,3.5
2022-12-15T12:48:57.286Z,3.6
2022-12-15T12:49:40.797Z,3.2
2022-12-15T12:50:34.315Z,3.7
2022-12-15T12:51:38.923Z,4.4
2022-12-15T12:52:36.451Z,3.0
2022-12-15T12:53:34.744Z,2.6
2022-12-15T12:54:40.651Z,3.7
2022-12-15T12:55:38.596Z,3.2
2022-12-15T12:56:38.867Z,5.2
2022-12-15T12:57:35.223Z,2.8
2022-12-15T12:58:38.275Z,3.1
2022-12-15T12:59:36.585Z,3.5
2022-12-15T13:00:34.998Z,4.0
2022-12-15T13:01:35.984Z,2.7
2022-12-15T13:02:39.217Z,3.7
2022-12-15T13:03:37.748Z,4.8
2022-12-15T13:04:38.155Z,3.4
2022-12-15T13:05:35.820Z,4.0
2022-12-15T13:06:39.198Z,3.9
2022-12-15T13:07:37.842Z,3.7
2022-12-15T13:08:51.367Z,3.6
2022-12-15T13:09:41.330Z,3.5
2022-12-15T13:10:35.476Z,3.9
2022-12-15T13:11:41.722Z,3.0
2022-12-15T13:12:52.133Z,3.7
2022-12-15T13:13:36.975Z,3.5
2022-12-15T13:14:39.791Z,3.3
2022-12-15T13:15:40.259Z,3.5
2022-12-15T13:16:40.086Z,3.2
2022-12-15T13:17:38.153Z,3.6
2022-12-15T13:18:52.206Z,3.9
2022-12-15T13:19:53.865Z,4.2
2022-12-15T13:20:37.516Z,3.1
2022-12-15T13:21:45.231Z,3.2
2022-12-15T13:22:35.089Z,3.2
2022-12-15T13:23:36.139Z,2.6
2022-12-15T13:24:39.632Z,3.4
2022-12-15T13:25:38.952Z,2.9
2022-12-15T13:26:34.502Z,3.5
2022-12-15T13:27:35.629Z,3.4
2022-12-15T13:28:38.838Z,3.7
2022-12-15T13:29:39.588Z,3.8
2022-12-15T13:30:34.605Z,4.6
2022-12-15T13:31:38.828Z,3.2
2022-12-15T13:32:38.623Z,4.4
2022-12-15T13:33:38.909Z,3.2
2022-12-15T13:34:35.814Z,5.3
2022-12-15T13:35:39.488Z,4.7
2022-12-15T13:36:41.802Z,5.0
2022-12-15T13:37:52.175Z,4.3
2022-12-15T13:38:53.745Z,5.0
2022-12-15T13:39:39.613Z,5.4
2022-12-15T13:40:39.408Z,3.5
2022-12-15T13:41:34.392Z,3.7
2022-12-15T13:42:40.232Z,5.3
2022-12-15T13:43:38.620Z,4.3
2022-12-15T13:44:36.544Z,2.8
2022-12-15T13:45:48.730Z,4.4
2022-12-15T13:46:34.382Z,4.8